createdAt,value
2022-08-21T20:05:02.669Z,9.90
2022-08-21T20:07:31.019Z,8.80
2022-08-21T20:10:00.030Z,14.95
2022-08-21T20:12:28.093Z,11.88
2022-08-21T20:14:57.148Z,12.18
2022-08-21T20:17:25.655Z,9.75
2022-08-21T20:22:42.408Z,9.82
2022-08-21T20:25:10.397Z,10.80
2022-08-21T20:27:40.578Z,10.15
2022-08-21T20:30:10.115Z,14.55
2022-08-21T20:32:38.267Z,9.20
2022-08-21T20:40:45.628Z,8.55
2022-08-21T20:43:14.671Z,12.52
2022-08-21T20:45:43.719Z,11.90
2022-08-21T20:48:23.612Z,13.15
2022-08-21T20:51:02.841Z,18.85
2022-08-21T20:53:46.843Z,27.80
2022-08-21T20:56:30.236Z,26.67
2022-08-21T20:59:22.887Z,41.25
2022-08-21T21:01:54.177Z,39.60
2022-08-21T21:04:43.221Z,52.95
2022-08-21T21:07:18.616Z,60.05
2022-08-21T21:09:49.618Z,64.82
2022-08-21T21:12:30.754Z,58.25
2022-08-21T21:15:05.504Z,60.53
2022-08-21T21:18:13.258Z,72.82
2022-08-21T21:24:00.459Z,64.28
2022-08-21T21:26:46.145Z,74.45
2022-08-21T21:29:39.471Z,85.32
2022-08-21T21:32:10.188Z,81.03
2022-08-21T21:34:51.176Z,74.25
2022-08-21T21:37:37.426Z,80.82
2022-08-21T21:40:29.686Z,83.30
2022-08-21T21:43:05.503Z,82.65
2022-08-21T21:45:55.232Z,84.35
2022-08-21T21:48:41.294Z,91.53
2022-08-21T21:51:47.633Z,95.35
2022-08-21T21:54:43.536Z,81.12
2022-08-21T21:57:43.294Z,81.43
2022-08-21T22:00:21.092Z,87.60
2022-08-21T22:02:55.258Z,86.72
2022-08-21T22:05:43.127Z,87.28
2022-08-21T22:08:30.278Z,78.87
2022-08-21T22:11:08.976Z,82.78
2022-08-21T22:14:16.818Z,93.50
2022-08-21T22:16:51.215Z,88.28
2022-08-21T22:19:25.061Z,96.15
2022-08-21T22:22:01.004Z,87.05
2022-08-21T22:24:35.726Z,89.03
2022-08-21T22:27:09.560Z,90.18
2022-08-21T22:29:44.563Z,89.68
2022-08-21T22:32:13.588Z,91.05
2022-08-21T22:34:42.906Z,100.87
2022-08-21T22:37:12.404Z,92.40
2022-08-21T22:42:31.573Z,105.28
2022-08-21T22:45:04.742Z,97.43
2022-08-21T22:47:45.097Z,109.20
2022-08-21T22:50:27.379Z,101.62
2022-08-21T22:53:00.886Z,97.78
2022-08-21T22:55:55.223Z,93.35
2022-08-21T22:58:27.538Z,94.93
2022-08-21T23:01:00.846Z,96.90
2022-08-21T23:03:47.672Z,107.70
2022-08-21T23:06:36.110Z,102.00
2022-08-21T23:09:17.566Z,100.18
2022-08-21T23:11:50.887Z,93.50
2022-08-21T23:14:35.271Z,94.30
2022-08-21T23:17:14.449Z,103.45
2022-08-21T23:20:03.591Z,105.72
2022-08-21T23:22:37.369Z,94.50
2022-08-21T23:25:28.350Z,101.50
2022-08-21T23:28:23.985Z,100.95
2022-08-21T23:31:13.734Z,95.18
2022-08-21T23:34:20.179Z,92.53
2022-08-21T23:37:23.193Z,90.38
2022-08-21T23:40:15.058Z,108.23
2022-08-21T23:43:13.156Z,93.32
2022-08-21T23:46:07.621Z,82.47
2022-08-21T23:49:06.038Z,99.40
2022-08-21T23:55:00.287Z,90.55
